createdAt,value
2023-04-10T00:02:11.287Z,100183.91
2023-04-10T00:04:38.344Z,100178.28
2023-04-10T00:07:05.107Z,100172.34
2023-04-10T00:09:31.725Z,100168.69
2023-04-10T00:11:58.550Z,100170.69
2023-04-10T00:14:25.488Z,100170.19
2023-04-10T00:16:52.139Z,100170.53
2023-04-10T00:19:18.781Z,100168.72
2023-04-10T00:21:45.545Z,100166.28
2023-04-10T00:24:12.209Z,100169.28
2023-04-10T00:26:41.270Z,100163.97
2023-04-10T00:29:08.338Z,100168.78
2023-04-10T00:31:35.444Z,100166.66
2023-04-10T00:34:02.194Z,100168.81
2023-04-10T00:36:28.946Z,100167.19
2023-04-10T00:38:55.645Z,100165.69
2023-04-10T00:41:23.992Z,100164.19
2023-04-10T00:43:55.446Z,100168.84
2023-04-10T00:46:22.965Z,100167.00
2023-04-10T00:48:51.163Z,100179.13
2023-04-10T00:51:19.409Z,100174.50
2023-04-10T00:53:47.757Z,100171.34
2023-04-10T00:56:14.764Z,100171.50
2023-04-10T00:58:41.550Z,100170.53
2023-04-10T01:01:08.670Z,100171.19
2023-04-10T01:03:36.051Z,100168.22
2023-04-10T01:06:35.074Z,100163.91
2023-04-10T01:09:16.910Z,100158.25
2023-04-10T01:12:10.113Z,100148.47
2023-04-10T01:14:51.598Z,100153.09
2023-04-10T01:17:39.938Z,100154.59
2023-04-10T01:20:11.389Z,100153.56
2023-04-10T01:23:14.036Z,100154.41
2023-04-10T01:25:47.126Z,100155.66
2023-04-10T01:28:23.495Z,100149.88
2023-04-10T01:30:58.461Z,100154.81
2023-04-10T01:33:35.276Z,100148.69
2023-04-10T01:36:05.537Z,100157.41
2023-04-10T01:38:33.192Z,100158.06
2023-04-10T01:41:00.384Z,100151.25
2023-04-10T01:43:30.078Z,100158.03
2023-04-10T01:45:57.783Z,100151.06
2023-04-10T01:48:25.727Z,100158.16
2023-04-10T01:50:52.884Z,100154.00
2023-04-10T01:53:20.149Z,100152.69
2023-04-10T01:55:47.426Z,100149.69
2023-04-10T01:58:15.577Z,100149.50
2023-04-10T02:00:43.494Z,100149.28
2023-04-10T02:03:12.403Z,100148.16
2023-04-10T02:06:09.047Z,100149.78
2023-04-10T02:09:07.261Z,100152.38
2023-04-10T02:11:57.799Z,100153.97
2023-04-10T02:14:29.588Z,100158.38
2023-04-10T02:16:56.637Z,100156.88
2023-04-10T02:19:25.318Z,100156.53
2023-04-10T02:21:52.106Z,100162.78
2023-04-10T02:24:20.215Z,100158.81
2023-04-10T02:26:51.540Z,100157.97
2023-04-10T02:29:18.667Z,100156.16
2023-04-10T02:31:46.232Z,100153.97
2023-04-10T02:34:14.229Z,100153.47
2023-04-10T02:36:43.292Z,100158.75
2023-04-10T02:39:13.622Z,100153.94
2023-04-10T02:41:49.856Z,100145.16
2023-04-10T02:44:17.252Z,100151.56
2023-04-10T02:46:44.467Z,100153.69
2023-04-10T02:49:12.484Z,100149.00
2023-04-10T02:51:39.239Z,100139.59
2023-04-10T02:54:06.031Z,100144.00
2023-04-10T02:56:35.034Z,100150.94
2023-04-10T02:59:02.237Z,100150.75
2023-04-10T03:01:32.120Z,100139.53
2023-04-10T03:03:59.855Z,100147.84
2023-04-10T03:06:30.902Z,100142.31
2023-04-10T03:08:58.191Z,100142.91
2023-04-10T03:11:27.262Z,100139.31
2023-04-10T03:13:54.372Z,100138.47
2023-04-10T03:16:21.465Z,100139.91
2023-04-10T03:18:48.321Z,100142.53
2023-04-10T03:21:15.030Z,100141.13
2023-04-10T03:23:42.164Z,100147.75
2023-04-10T03:26:10.325Z,100140.38
2023-04-10T03:28:39.695Z,100145.53
2023-04-10T03:31:09.891Z,100148.41
2023-04-10T03:33:36.772Z,100145.16
2023-04-10T03:36:04.673Z,100138.72
2023-04-10T03:38:33.124Z,100143.03
2023-04-10T03:40:59.852Z,100150.03
2023-04-10T03:43:31.117Z,100149.72
2023-04-10T03:45:58.337Z,100147.28
2023-04-10T03:48:28.288Z,100147.81
2023-04-10T03:50:55.623Z,100155.25
2023-04-10T03:53:22.998Z,100147.50
2023-04-10T03:55:52.527Z,100152.94
2023-04-10T03:58:20.555Z,100148.78
2023-04-10T04:00:47.682Z,100151.28
2023-04-10T04:03:24.837Z,100148.94
2023-04-10T04:06:02.686Z,100136.19
2023-04-10T04:08:52.612Z,100148.06
2023-04-10T04:11:39.207Z,100152.81
2023-04-10T04:14:45.291Z,100151.19
2023-04-10T04:17:37.400Z,100147.94
2023-04-10T04:20:05.733Z,100151.66
2023-04-10T04:23:02.283Z,100158.06
2023-04-10T04:25:47.585Z,100153.47
2023-04-10T04:28:39.990Z,100161.75
2023-04-10T04:31:21.313Z,100161.66
2023-04-10T04:34:06.543Z,100160.50
2023-04-10T04:36:47.308Z,100158.56
2023-04-10T04:39:35.928Z,100160.56
2023-04-10T04:42:18.026Z,100158.75
2023-04-10T04:45:03.120Z,100165.75
2023-04-10T04:47:45.110Z,100167.78
2023-04-10T04:50:34.925Z,100171.66
2023-04-10T04:53:14.012Z,100170.72
2023-04-10T04:56:01.078Z,100172.97
2023-04-10T04:58:46.459Z,100174.19
2023-04-10T05:01:35.438Z,100175.19
2023-04-10T05:04:25.114Z,100175.25
2023-04-10T05:07:24.260Z,100174.47
2023-04-10T05:10:08.849Z,100178.78
2023-04-10T05:12:58.409Z,100190.41
2023-04-10T05:15:32.648Z,100182.63
2023-04-10T05:18:09.357Z,100188.09
2023-04-10T05:20:54.505Z,100185.25
2023-04-10T05:23:41.447Z,100195.50
2023-04-10T05:26:27.931Z,100194.94
2023-04-10T05:29:14.922Z,100196.38
2023-04-10T05:32:08.889Z,100197.63
2023-04-10T05:34:58.751Z,100201.34
2023-04-10T05:37:33.900Z,100198.25
2023-04-10T05:40:09.856Z,100209.38
2023-04-10T05:42:59.711Z,100202.69
2023-04-10T05:45:50.909Z,100205.09
2023-04-10T05:48:30.248Z,100203.66
2023-04-10T05:51:16.847Z,100208.69
2023-04-10T05:54:14.926Z,100213.09
2023-04-10T05:57:07.955Z,100217.34
2023-04-10T06:00:00.914Z,100214.88
2023-04-10T06:02:49.635Z,100222.94
2023-04-10T06:05:23.384Z,100218.81
2023-04-10T06:07:58.372Z,100221.72
2023-04-10T06:10:25.543Z,100224.31
2023-04-10T06:12:53.311Z,100212.00
2023-04-10T06:15:22.633Z,100211.81
2023-04-10T06:17:49.808Z,100212.00
2023-04-10T06:20:16.514Z,100215.41
2023-04-10T06:22:43.142Z,100215.03
2023-04-10T06:25:10.084Z,100219.31
2023-04-10T06:27:37.372Z,100221.19
2023-04-10T06:30:08.636Z,100213.16
2023-04-10T06:32:35.503Z,100223.63
2023-04-10T06:35:02.633Z,100225.00
2023-04-10T06:37:32.850Z,100231.88
2023-04-10T06:40:07.754Z,100234.63
2023-04-10T06:42:34.821Z,100233.09
2023-04-10T06:45:09.573Z,100235.22
2023-04-10T06:47:39.115Z,100230.09
2023-04-10T06:50:06.262Z,100234.69
2023-04-10T06:52:33.189Z,100232.03
2023-04-10T06:54:59.874Z,100229.06
2023-04-10T06:57:26.588Z,100231.50
2023-04-10T06:59:53.278Z,100232.78
2023-04-10T07:02:20.195Z,100229.72
2023-04-10T07:04:50.420Z,100229.09
2023-04-10T07:07:19.215Z,100241.28
2023-04-10T07:09:46.133Z,100231.22
2023-04-10T07:12:12.790Z,100234.59
2023-04-10T07:14:39.462Z,100235.56
2023-04-10T07:17:06.388Z,100232.38
2023-04-10T07:19:33.032Z,100234.63
2023-04-10T07:22:00.722Z,100241.47
2023-04-10T07:24:28.064Z,100238.31
2023-04-10T07:26:54.803Z,100231.41
2023-04-10T07:29:21.513Z,100236.34
2023-04-10T07:31:48.307Z,100243.19
2023-04-10T07:34:15.056Z,100240.16
2023-04-10T07:36:41.726Z,100245.53
2023-04-10T07:39:11.216Z,100234.34
2023-04-10T07:41:37.873Z,100233.19
2023-04-10T07:44:04.789Z,100231.50
2023-04-10T07:46:31.427Z,100232.19
2023-04-10T07:48:58.112Z,100229.06
2023-04-10T07:51:24.882Z,100232.81
2023-04-10T07:53:51.852Z,100232.38
2023-04-10T07:56:19.800Z,100239.41
2023-04-10T07:58:46.725Z,100233.22
2023-04-10T08:01:13.635Z,100245.59
2023-04-10T08:03:45.622Z,100235.72
2023-04-10T08:06:12.520Z,100238.72
2023-04-10T08:08:41.212Z,100231.50
2023-04-10T08:11:25.632Z,100225.31
2023-04-10T08:13:53.740Z,100227.16
2023-04-10T08:16:27.867Z,100221.41
2023-04-10T08:18:55.885Z,100229.03
2023-04-10T08:21:22.844Z,100230.63
2023-04-10T08:23:57.642Z,100231.91
2023-04-10T08:26:25.659Z,100214.78
2023-04-10T08:28:54.132Z,100224.69
2023-04-10T08:31:22.498Z,100218.28
2023-04-10T08:33:49.555Z,100227.78
2023-04-10T08:36:18.381Z,100232.13
2023-04-10T08:38:48.299Z,100231.06
2023-04-10T08:41:16.726Z,100219.66
2023-04-10T08:43:45.797Z,100215.34
2023-04-10T08:46:16.221Z,100224.69
2023-04-10T08:48:47.265Z,100218.44
2023-04-10T08:51:20.381Z,100222.28
2023-04-10T08:53:51.619Z,100221.09
2023-04-10T08:56:18.935Z,100213.59
2023-04-10T08:58:45.933Z,100221.16
2023-04-10T09:01:12.714Z,100214.34
2023-04-10T09:03:39.624Z,100214.09
2023-04-10T09:06:06.769Z,100217.66
2023-04-10T09:08:34.114Z,100219.41
2023-04-10T09:11:00.979Z,100211.47
2023-04-10T09:13:39.335Z,100208.69
2023-04-10T09:16:07.055Z,100207.28
2023-04-10T09:19:05.041Z,100199.97
2023-04-10T09:21:32.421Z,100200.63
2023-04-10T09:24:02.356Z,100196.88
2023-04-10T09:26:33.551Z,100187.09
2023-04-10T09:29:04.302Z,100197.34
2023-04-10T09:31:40.330Z,100193.75
2023-04-10T09:34:10.240Z,100191.53
2023-04-10T09:36:37.681Z,100188.31
2023-04-10T09:39:05.442Z,100180.03
2023-04-10T09:41:32.151Z,100183.97
2023-04-10T09:44:10.708Z,100172.19
2023-04-10T09:46:38.001Z,100167.44
2023-04-10T09:49:05.466Z,100163.06
2023-04-10T09:51:34.701Z,100163.69
2023-04-10T09:54:02.439Z,100159.53
2023-04-10T09:56:37.093Z,100156.13
2023-04-10T09:59:04.867Z,100158.03
2023-04-10T10:01:34.834Z,100164.69
2023-04-10T10:04:03.595Z,100170.25
2023-04-10T10:06:33.864Z,100153.97
2023-04-10T10:09:03.200Z,100154.13
2023-04-10T10:11:32.872Z,100152.00
2023-04-10T10:14:00.562Z,100140.56
2023-04-10T10:16:27.151Z,100135.41
2023-04-10T10:19:34.232Z,100136.78
2023-04-10T10:22:01.859Z,100129.19
2023-04-10T10:24:30.005Z,100131.59
2023-04-10T10:26:57.441Z,100113.94
2023-04-10T10:29:24.668Z,100108.22
2023-04-10T10:31:55.545Z,100102.50
2023-04-10T10:34:22.332Z,100107.38
2023-04-10T10:36:51.231Z,100109.03
2023-04-10T10:39:17.934Z,100105.78
2023-04-10T10:41:54.697Z,100103.72
2023-04-10T10:44:30.532Z,100084.94
2023-04-10T10:47:17.373Z,100098.97
2023-04-10T10:49:55.324Z,100092.03
2023-04-10T10:52:52.785Z,100094.47
2023-04-10T10:55:22.610Z,100087.53
2023-04-10T10:58:00.435Z,100079.81
2023-04-10T11:00:52.915Z,100075.88
2023-04-10T11:03:19.759Z,100072.28
2023-04-10T11:06:03.869Z,100077.16
2023-04-10T11:08:33.752Z,100067.75
2023-04-10T11:11:07.240Z,100062.56
2023-04-10T11:13:34.268Z,100063.91
2023-04-10T11:16:02.992Z,100057.91
2023-04-10T11:18:44.915Z,100064.47
2023-04-10T11:21:18.549Z,100058.31
2023-04-10T11:24:05.640Z,100047.00
2023-04-10T11:26:39.372Z,100054.94
2023-04-10T11:29:06.666Z,100029.00
2023-04-10T11:31:34.229Z,100035.88
2023-04-10T11:34:03.293Z,100042.63
2023-04-10T11:36:30.589Z,100031.25
2023-04-10T11:38:58.104Z,100031.63
2023-04-10T11:41:36.697Z,100024.63
2023-04-10T11:44:10.289Z,100021.88
2023-04-10T11:46:38.620Z,100023.00
2023-04-10T11:49:06.703Z,100019.13
2023-04-10T11:51:33.858Z,100021.38
2023-04-10T11:54:16.465Z,100017.66
2023-04-10T11:56:45.200Z,100018.28
2023-04-10T11:59:13.650Z,100016.50
2023-04-10T12:01:43.144Z,100013.56
2023-04-10T12:04:21.202Z,100011.06
2023-04-10T12:06:52.902Z,100011.09
2023-04-10T12:09:20.960Z,100009.34
2023-04-10T12:12:01.657Z,100005.38
2023-04-10T12:14:36.445Z,100001.72
2023-04-10T12:17:04.522Z,99990.69
2023-04-10T12:19:31.537Z,100001.06
2023-04-10T12:21:58.900Z,99997.56
2023-04-10T12:24:48.608Z,99993.03
2023-04-10T12:27:16.736Z,99986.00
2023-04-10T12:29:44.278Z,99986.53
2023-04-10T12:32:13.199Z,99978.03
2023-04-10T12:34:39.996Z,99972.41
2023-04-10T12:37:07.482Z,99971.72
2023-04-10T12:39:34.226Z,99968.13
2023-04-10T12:42:20.801Z,99964.69
2023-04-10T12:44:55.748Z,99954.94
2023-04-10T12:47:27.580Z,99957.53
2023-04-10T12:50:08.496Z,99954.44
2023-04-10T12:52:36.105Z,99952.56
2023-04-10T12:55:16.995Z,99945.53
2023-04-10T12:57:46.185Z,99940.66
2023-04-10T13:00:15.947Z,99938.47
2023-04-10T13:02:43.415Z,99948.25
2023-04-10T13:05:10.643Z,99939.19
2023-04-10T13:07:38.269Z,99939.16
2023-04-10T13:10:06.029Z,99932.44
2023-04-10T13:12:34.845Z,99930.34
2023-04-10T13:15:02.809Z,99925.84
2023-04-10T13:17:29.505Z,99921.94
2023-04-10T13:19:56.296Z,99918.94
2023-04-10T13:22:22.975Z,99925.00
2023-04-10T13:24:49.701Z,99917.47
2023-04-10T13:27:16.446Z,99918.19
2023-04-10T13:29:43.451Z,99907.06
2023-04-10T13:32:12.695Z,99907.81
2023-04-10T13:34:41.464Z,99906.88
2023-04-10T13:37:09.672Z,99903.47
2023-04-10T13:39:36.348Z,99893.59
2023-04-10T13:42:02.972Z,99894.63
2023-04-10T13:44:29.690Z,99888.97
2023-04-10T13:46:58.166Z,99888.81
2023-04-10T13:49:24.916Z,99887.31
2023-04-10T13:51:51.557Z,99885.75
2023-04-10T13:54:18.224Z,99874.81
2023-04-10T13:56:46.495Z,99879.88
2023-04-10T13:59:13.459Z,99874.41
2023-04-10T14:01:40.194Z,99867.22
2023-04-10T14:04:06.988Z,99855.22
2023-04-10T14:06:33.943Z,99857.50
2023-04-10T14:09:00.651Z,99852.16
2023-04-10T14:11:27.419Z,99851.88
2023-04-10T14:13:54.035Z,99845.75
2023-04-10T14:16:20.862Z,99848.31
2023-04-10T14:18:47.631Z,99840.50
2023-04-10T14:21:14.297Z,99845.63
2023-04-10T14:23:41.353Z,99846.63
2023-04-10T14:26:08.232Z,99841.06
2023-04-10T14:28:35.052Z,99837.28
2023-04-10T14:31:01.914Z,99826.78
2023-04-10T14:33:28.837Z,99831.09
2023-04-10T14:35:55.728Z,99824.53
2023-04-10T14:38:22.450Z,99833.78
2023-04-10T14:40:50.314Z,99828.28
2023-04-10T14:43:17.159Z,99829.78
2023-04-10T14:45:43.906Z,99811.88
2023-04-10T14:48:12.882Z,99811.13
2023-04-10T14:50:39.929Z,99811.91
2023-04-10T14:53:09.541Z,99814.06
2023-04-10T14:55:39.886Z,99812.50
2023-04-10T14:58:07.146Z,99808.50
2023-04-10T15:00:33.840Z,99806.09
2023-04-10T15:03:00.888Z,99799.44
2023-04-10T15:05:27.993Z,99804.72
2023-04-10T15:07:55.113Z,99798.66
2023-04-10T15:10:21.888Z,99794.25
2023-04-10T15:12:48.523Z,99796.63
2023-04-10T15:15:15.351Z,99797.19
2023-04-10T15:17:42.120Z,99796.69
2023-04-10T15:20:09.249Z,99797.75
2023-04-10T15:22:36.115Z,99785.28
2023-04-10T15:25:02.892Z,99786.47
2023-04-10T15:27:29.584Z,99787.00
2023-04-10T15:29:56.208Z,99779.72
2023-04-10T15:32:22.848Z,99782.88
2023-04-10T15:34:49.569Z,99775.84
2023-04-10T15:37:16.210Z,99770.13
2023-04-10T15:39:42.862Z,99768.25
2023-04-10T15:42:09.524Z,99766.63
2023-04-10T15:44:36.121Z,99765.53
2023-04-10T15:47:02.879Z,99759.16
2023-04-10T15:49:37.636Z,99763.66
2023-04-10T15:52:06.376Z,99752.78
2023-04-10T15:54:33.781Z,99757.19
2023-04-10T15:57:01.580Z,99756.94
2023-04-10T15:59:28.200Z,99745.06
2023-04-10T16:01:54.996Z,99742.53
2023-04-10T16:04:21.824Z,99747.63
2023-04-10T16:06:48.571Z,99728.66
2023-04-10T16:09:25.730Z,99733.75
2023-04-10T16:11:54.378Z,99734.81
2023-04-10T16:14:21.142Z,99730.91
2023-04-10T16:16:48.005Z,99720.94
2023-04-10T16:19:14.609Z,99722.81
2023-04-10T16:21:42.716Z,99727.59
2023-04-10T16:24:11.015Z,99724.63
2023-04-10T16:26:37.760Z,99716.88
2023-04-10T16:29:04.396Z,99721.06
2023-04-10T16:31:31.265Z,99720.00
2023-04-10T16:33:57.998Z,99718.94
2023-04-10T16:36:24.689Z,99711.81
2023-04-10T16:38:51.359Z,99715.84
2023-04-10T16:41:18.546Z,99706.91
2023-04-10T16:43:45.357Z,99698.25
2023-04-10T16:46:12.371Z,99707.22
2023-04-10T16:48:39.040Z,99705.03
2023-04-10T16:51:06.986Z,99694.16
2023-04-10T16:53:35.920Z,99691.13
2023-04-10T16:56:05.136Z,99693.44
2023-04-10T16:58:36.871Z,99692.91
2023-04-10T17:01:35.229Z,99694.63
2023-04-10T17:04:02.037Z,99693.25
2023-04-10T17:06:28.747Z,99698.69
2023-04-10T17:08:55.489Z,99694.00
2023-04-10T17:11:22.331Z,99702.41
2023-04-10T17:13:48.975Z,99694.59
2023-04-10T17:16:16.081Z,99699.94
2023-04-10T17:18:43.255Z,99694.22
2023-04-10T17:21:13.751Z,99692.34
2023-04-10T17:23:41.022Z,99688.97
2023-04-10T17:26:13.287Z,99692.81
2023-04-10T17:28:39.964Z,99689.06
2023-04-10T17:31:06.837Z,99692.59
2023-04-10T17:33:33.573Z,99701.47
2023-04-10T17:36:00.239Z,99693.69
2023-04-10T17:38:26.858Z,99683.59
2023-04-10T17:40:53.444Z,99686.22
2023-04-10T17:43:20.224Z,99686.75
2023-04-10T17:45:46.880Z,99688.97
2023-04-10T17:48:13.682Z,99690.31
2023-04-10T17:50:40.433Z,99691.72
2023-04-10T17:53:07.076Z,99691.44
2023-04-10T17:55:38.774Z,99696.03
2023-04-10T17:58:05.953Z,99704.44
2023-04-10T18:00:33.701Z,99704.53
2023-04-10T18:03:01.352Z,99704.59
2023-04-10T18:05:29.142Z,99710.19
2023-04-10T18:07:56.165Z,99696.56
2023-04-10T18:10:23.107Z,99697.69
2023-04-10T18:12:49.840Z,99705.16
2023-04-10T18:15:16.549Z,99702.13
2023-04-10T18:17:45.569Z,99705.69
2023-04-10T18:20:12.193Z,99697.09
2023-04-10T18:22:39.365Z,99696.28
2023-04-10T18:25:06.863Z,99697.94
2023-04-10T18:27:35.925Z,99693.94
2023-04-10T18:30:02.531Z,99694.56
2023-04-10T18:32:29.220Z,99705.91
2023-04-10T18:34:55.900Z,99695.88
2023-04-10T18:37:22.523Z,99697.34
2023-04-10T18:39:49.141Z,99699.22
2023-04-10T18:42:15.731Z,99698.63
2023-04-10T18:44:42.370Z,99698.03
2023-04-10T18:47:11.106Z,99698.66
2023-04-10T18:49:37.882Z,99697.22
2023-04-10T18:52:04.514Z,99698.66
2023-04-10T18:54:31.235Z,99698.47
2023-04-10T18:57:30.993Z,99695.38
2023-04-10T18:59:57.913Z,99686.16
2023-04-10T19:02:24.907Z,99680.59
2023-04-10T19:04:53.355Z,99689.63
2023-04-10T19:07:20.144Z,99691.06
2023-04-10T19:09:47.844Z,99686.94
2023-04-10T19:12:14.738Z,99677.47
2023-04-10T19:14:41.422Z,99685.66
2023-04-10T19:17:08.454Z,99687.91
2023-04-10T19:19:35.156Z,99686.84
2023-04-10T19:22:01.863Z,99682.31
2023-04-10T19:24:29.180Z,99685.78
2023-04-10T19:26:56.551Z,99691.47
2023-04-10T19:29:23.358Z,99686.16
2023-04-10T19:31:50.017Z,99693.09
2023-04-10T19:34:16.745Z,99690.19
2023-04-10T19:36:43.423Z,99690.78
2023-04-10T19:39:10.025Z,99681.13
2023-04-10T19:41:41.745Z,99696.13
2023-04-10T19:44:08.772Z,99690.56
2023-04-10T19:46:35.600Z,99695.47
2023-04-10T19:49:02.327Z,99687.06
2023-04-10T19:51:28.954Z,99692.38
2023-04-10T19:53:56.028Z,99692.34
2023-04-10T19:56:22.835Z,99690.94
2023-04-10T19:58:49.489Z,99686.59
2023-04-10T20:01:16.361Z,99672.25
2023-04-10T20:03:43.167Z,99676.94
2023-04-10T20:06:10.414Z,99672.84
2023-04-10T20:08:37.208Z,99669.53
2023-04-10T20:11:06.415Z,99675.50
2023-04-10T20:13:34.546Z,99670.75
2023-04-10T20:16:01.334Z,99671.56
2023-04-10T20:18:27.972Z,99661.53
2023-04-10T20:20:54.616Z,99666.88
2023-04-10T20:23:21.270Z,99669.13
2023-04-10T20:25:47.957Z,99663.44
2023-04-10T20:28:15.635Z,99656.44
2023-04-10T20:30:43.869Z,99654.75
2023-04-10T20:33:11.116Z,99648.75
2023-04-10T20:35:38.087Z,99653.84
2023-04-10T20:38:04.734Z,99647.03
2023-04-10T20:40:31.327Z,99648.69
2023-04-10T20:42:57.940Z,99646.81
2023-04-10T20:45:24.600Z,99651.34
2023-04-10T20:47:51.269Z,99652.31
2023-04-10T20:50:18.408Z,99649.22
2023-04-10T20:52:45.045Z,99648.22
2023-04-10T20:55:11.719Z,99644.97
2023-04-10T20:57:38.412Z,99647.78
2023-04-10T21:00:05.660Z,99645.72
2023-04-10T21:02:32.691Z,99641.81
2023-04-10T21:04:59.754Z,99638.50
2023-04-10T21:07:26.438Z,99637.06
2023-04-10T21:09:53.150Z,99631.31
2023-04-10T21:12:19.795Z,99628.00
2023-04-10T21:14:46.652Z,99635.41
2023-04-10T21:17:13.244Z,99624.91
2023-04-10T21:19:39.982Z,99619.53
2023-04-10T21:22:06.605Z,99628.34
2023-04-10T21:24:33.270Z,99621.19
2023-04-10T21:26:59.911Z,99621.59
2023-04-10T21:29:26.508Z,99622.00
2023-04-10T21:31:53.381Z,99620.94
2023-04-10T21:34:20.099Z,99620.13
2023-04-10T21:36:47.957Z,99620.94
2023-04-10T21:39:14.691Z,99624.44
2023-04-10T21:41:41.410Z,99617.22
2023-04-10T21:44:08.097Z,99613.69
2023-04-10T21:46:34.814Z,99611.22
2023-04-10T21:49:01.527Z,99606.66
2023-04-10T21:51:28.454Z,99616.28
2023-04-10T21:53:55.249Z,99612.38
2023-04-10T21:56:21.916Z,99605.78
2023-04-10T21:58:48.522Z,99602.25
2023-04-10T22:01:15.328Z,99605.72
2023-04-10T22:03:42.040Z,99604.47
2023-04-10T22:06:09.149Z,99590.81
2023-04-10T22:08:38.435Z,99591.81
2023-04-10T22:11:06.101Z,99597.50
2023-04-10T22:13:32.923Z,99593.16
2023-04-10T22:16:02.482Z,99589.47
2023-04-10T22:18:29.717Z,99577.59
2023-04-10T22:20:56.500Z,99580.16
2023-04-10T22:23:23.180Z,99569.28
2023-04-10T22:25:50.002Z,99569.72
2023-04-10T22:28:16.672Z,99571.00
2023-04-10T22:30:43.358Z,99559.91
2023-04-10T22:33:10.588Z,99561.06
2023-04-10T22:35:37.646Z,99561.53
2023-04-10T22:38:04.273Z,99563.34
2023-04-10T22:40:31.357Z,99562.88
2023-04-10T22:42:58.114Z,99558.75
2023-04-10T22:45:24.852Z,99553.19
2023-04-10T22:47:51.530Z,99549.09
2023-04-10T22:50:18.314Z,99549.09
2023-04-10T22:52:44.995Z,99544.78
2023-04-10T22:55:11.764Z,99552.50
2023-04-10T22:57:38.422Z,99548.84
2023-04-10T23:00:05.458Z,99556.16
2023-04-10T23:02:32.176Z,99551.09
2023-04-10T23:04:58.972Z,99549.25
2023-04-10T23:07:27.759Z,99543.06
2023-04-10T23:09:54.432Z,99544.66
2023-04-10T23:12:21.158Z,99539.13
2023-04-10T23:14:47.780Z,99528.88
2023-04-10T23:17:14.437Z,99540.09
2023-04-10T23:19:41.162Z,99528.00
2023-04-10T23:22:07.842Z,99530.84
2023-04-10T23:24:34.444Z,99527.38
2023-04-10T23:27:01.057Z,99521.22
2023-04-10T23:29:27.703Z,99515.91
2023-04-10T23:31:54.348Z,99520.78
2023-04-10T23:34:21.196Z,99511.00
2023-04-10T23:36:47.834Z,99507.06
2023-04-10T23:39:14.528Z,99498.63
2023-04-10T23:41:41.270Z,99500.72
2023-04-10T23:44:07.919Z,99499.09
2023-04-10T23:46:34.731Z,99498.84
2023-04-10T23:49:01.440Z,99491.22
2023-04-10T23:51:28.163Z,99496.38
2023-04-10T23:53:54.770Z,99494.72
2023-04-10T23:56:21.642Z,99487.50
2023-04-10T23:58:48.338Z,99485.47
